Duck Lake, Canada
Current Conditions -  °F | °C
As of 11:00 AM on Thursday 30 Oct 2014 (Local Time) from CYPA Reporting Station
Broken Clouds Broken Clouds  
Wind Chill: 21°   Ceiling: 2100
Heat Index: 28°   Visibility: 15mi
Dew Point: 19°   Wind: 7mph
Humidity: 69%   Direction: 120°ESE
Pressure: 30.51"   Gusts: NA
Location:  52.8°N, 106.22°W
Report Text: CYPA 301700Z 12006KT 15SM BKN021 M02/M07 A3051 RMK SC7 SLP359
Loading
Personal Weather Stations






























Interactive Weather Map
Tropical Storm Tracking
New forecast layout! Learn more

10-Day Weather Forecast

Advertisements
Track Severe Weather on mobile